Time;durP1;ratioP1;P1;durP2;ratioP2;P2;SDS_P1;SDS_P2;PMS_P1;PMS_P2;Temp;Humidity;BMP_temperature;BMP_pressure;BME280_temperature;BME280_humidity;BME280_pressure;Samples;Min_cycle;Max_cycle;Signal;HPM_P1;HPM_P2
2023/10/25 00:01:39;;;;;;;0.98;0.98;;;;;;;9.37;100.00;100077.34;10598169;27;20028;-72
2023/10/25 00:06:39;;;;;;;0.40;0.40;;;;;;;9.27;100.00;100085.88;10581414;28;20031;-72
2023/10/25 00:11:39;;;;;;;0.50;0.50;;;;;;;9.21;100.00;100077.78;10581542;28;20027;-73
2023/10/25 00:16:40;;;;;;;0.47;0.47;;;;;;;9.13;100.00;100073.44;10581882;28;20168;-70
2023/10/25 00:21:40;;;;;;;0.50;0.50;;;;;;;9.05;100.00;100073.63;10581147;28;20027;-70
2023/10/25 00:26:41;;;;;;;0.73;0.73;;;;;;;8.98;100.00;100068.25;10580325;28;20513;-70
2023/10/25 00:31:42;;;;;;;2.50;2.30;;;;;;;8.94;100.00;100067.00;10579422;28;20039;-71
2023/10/25 00:36:43;;;;;;;0.60;0.60;;;;;;;8.90;100.00;100073.81;10580921;28;20122;-71
2023/10/25 00:41:43;;;;;;;5.03;4.50;;;;;;;8.90;100.00;100062.19;10579819;28;20032;-71
2023/10/25 00:46:44;;;;;;;1.02;1.02;;;;;;;8.92;100.00;100065.53;10579100;28;20458;-72
2023/10/25 00:51:44;;;;;;;0.80;0.80;;;;;;;8.95;100.00;100063.25;10579595;28;20397;-70
2023/10/25 00:56:45;;;;;;;0.60;0.60;;;;;;;8.97;100.00;100066.59;10579701;28;20044;-70
2023/10/25 01:01:45;;;;;;;0.60;0.60;;;;;;;8.94;100.00;100061.59;10579123;28;20043;-71
2023/10/25 01:06:45;;;;;;;1.65;1.65;;;;;;;8.91;100.00;100056.59;10578725;28;20032;-71
2023/10/25 01:11:46;;;;;;;0.52;0.52;;;;;;;8.88;100.00;100045.41;10578048;28;20043;-69
2023/10/25 01:16:47;;;;;;;0.40;0.40;;;;;;;8.90;100.00;100036.03;10580053;28;20035;-71
2023/10/25 01:21:47;;;;;;;0.60;0.60;;;;;;;8.83;100.00;100037.91;10579965;28;20530;-71
2023/10/25 01:26:47;;;;;;;0.40;0.40;;;;;;;8.79;100.00;100032.09;10578014;28;20035;-71
2023/10/25 01:31:48;;;;;;;0.73;0.73;;;;;;;8.79;100.00;100037.50;10579281;28;20111;-72
2023/10/25 01:36:49;;;;;;;0.60;0.60;;;;;;;8.76;100.00;100020.88;10595565;27;20031;-74
2023/10/25 01:41:49;;;;;;;0.50;0.50;;;;;;;8.69;100.00;100009.25;10577024;28;20092;-72
2023/10/25 01:46:49;;;;;;;0.43;0.43;;;;;;;8.68;100.00;100004.88;10579328;28;20056;-71
2023/10/25 01:51:50;;;;;;;0.50;0.50;;;;;;;8.65;100.00;100007.97;10579546;28;20048;-71
2023/10/25 01:56:50;;;;;;;0.30;0.30;;;;;;;8.64;100.00;99990.97;10596233;28;20043;-71
2023/10/25 02:01:50;;;;;;;1.15;1.15;;;;;;;8.63;100.00;99989.31;10578379;28;20108;-72
2023/10/25 02:06:54;;;;;;;1.20;1.13;;;;;;;8.65;100.00;99994.50;10576694;28;20039;-72
2023/10/25 02:11:54;;;;;;;0.35;0.35;;;;;;;8.55;100.00;99982.28;10578478;28;20023;-72
2023/10/25 02:16:55;;;;;;;0.60;0.60;;;;;;;8.49;100.00;99977.69;10576183;28;20059;-71
2023/10/25 02:21:55;;;;;;;1.02;1.02;;;;;;;8.43;100.00;99973.13;10559718;28;20130;-70
2023/10/25 02:26:56;;;;;;;0.60;0.60;;;;;;;8.35;100.00;99965.19;10577616;28;20036;-71
2023/10/25 02:31:57;;;;;;;3.63;2.50;;;;;;;8.36;100.00;99969.56;10578785;28;20103;-71
2023/10/25 02:36:58;;;;;;;0.70;0.70;;;;;;;8.29;100.00;99964.13;10581416;28;20173;-72
2023/10/25 02:41:58;;;;;;;0.50;0.50;;;;;;;8.29;100.00;99955.22;10585455;28;20023;-73
2023/10/25 02:46:59;;;;;;;0.55;0.55;;;;;;;8.24;100.00;99960.41;10582670;28;20135;-71
2023/10/25 02:51:59;;;;;;;1.23;1.23;;;;;;;8.21;100.00;99950.03;10566630;28;20036;-72
2023/10/25 02:56:59;;;;;;;3.92;1.85;;;;;;;8.18;100.00;99958.53;10585675;28;20434;-71
2023/10/25 03:02:00;;;;;;;0.75;0.75;;;;;;;8.24;100.00;99952.31;10600186;27;20039;-71
2023/10/25 03:07:00;;;;;;;1.75;1.75;;;;;;;8.32;100.00;99949.41;10583546;28;20043;-71
2023/10/25 03:12:01;;;;;;;0.90;0.90;;;;;;;8.37;100.00;99946.94;10565952;28;20043;-71
2023/10/25 03:17:01;;;;;;;1.15;1.15;;;;;;;8.41;100.00;99942.81;10583583;28;20054;-70
2023/10/25 03:22:03;;;;;;;0.65;0.65;;;;;;;8.42;100.00;99933.66;10583311;28;20044;-70
2023/10/25 03:27:03;;;;;;;2.83;1.65;;;;;;;8.45;100.00;99930.56;10582020;28;20106;-71
2023/10/25 03:32:04;;;;;;;0.45;0.45;;;;;;;8.41;100.00;99912.31;10584299;28;20115;-71
2023/10/25 03:37:04;;;;;;;0.63;0.63;;;;;;;8.43;100.00;99919.16;10583494;28;20112;-71
2023/10/25 03:42:05;;;;;;;0.50;0.50;;;;;;;8.43;100.00;99919.16;10583054;28;20031;-70
2023/10/25 03:47:05;;;;;;;0.40;0.40;;;;;;;8.42;100.00;99917.47;10580938;28;20339;-70
2023/10/25 03:52:06;;;;;;;0.82;0.82;;;;;;;8.38;100.00;99908.97;10582082;28;20046;-72
2023/10/25 03:57:06;;;;;;;0.40;0.40;;;;;;;8.44;100.00;99904.63;10582226;28;20105;-69
2023/10/25 04:02:06;;;;;;;0.65;0.65;;;;;;;8.46;100.00;99896.34;10581356;28;20457;-71
2023/10/25 04:07:07;;;;;;;0.50;0.50;;;;;;;8.44;100.00;99893.84;10563908;28;20039;-71
2023/10/25 04:12:12;;;;;;;0.60;0.60;;;;;;;8.48;100.00;99896.94;10581919;28;20481;-70
2023/10/25 04:17:12;;;;;;;0.98;0.98;;;;;;;8.40;100.00;99887.19;10581980;27;20032;-72
2023/10/25 04:22:13;;;;;;;1.63;1.60;;;;;;;8.42;100.00;99879.72;10579589;28;20110;-70
2023/10/25 04:27:13;;;;;;;2.28;2.20;;;;;;;8.47;100.00;99882.63;10581782;28;20103;-71
2023/10/25 04:32:14;;;;;;;10.35;8.85;;;;;;;8.49;100.00;99872.47;10583445;28;20028;-70
2023/10/25 04:37:14;;;;;;;10.50;9.40;;;;;;;8.60;100.00;99871.00;10587302;28;20031;-71
2023/10/25 04:42:15;;;;;;;14.90;10.15;;;;;;;8.57;100.00;99860.63;10580272;28;20069;-71
2023/10/25 04:47:15;;;;;;;19.20;9.35;;;;;;;8.66;100.00;99848.56;10580764;28;20047;-72
2023/10/25 04:52:16;;;;;;;12.77;10.02;;;;;;;8.71;100.00;99842.53;10582247;28;20027;-71
2023/10/25 04:57:17;;;;;;;14.10;10.65;;;;;;;8.74;100.00;99842.94;10578337;28;20039;-71
2023/10/25 05:02:17;;;;;;;11.20;9.10;;;;;;;8.77;100.00;99838.97;10579427;28;20058;-71
2023/10/25 05:07:18;;;;;;;12.93;8.23;;;;;;;8.73;100.00;99825.06;10579209;28;20063;-71
2023/10/25 05:12:18;;;;;;;12.98;9.25;;;;;;;8.71;100.00;99819.09;10579161;28;20542;-73
2023/10/25 05:17:19;;;;;;;12.38;9.45;;;;;;;8.78;100.00;99824.47;10580336;28;20035;-72
2023/10/25 05:22:19;;;;;;;19.17;11.45;;;;;;;8.78;100.00;99819.88;10577464;28;20114;-70
2023/10/25 05:27:20;;;;;;;12.70;8.88;;;;;;;8.84;100.00;99821.72;10577280;28;20036;-71
2023/10/25 05:32:20;;;;;;;11.18;8.98;;;;;;;8.93;100.00;99822.31;10562092;28;20367;-73
2023/10/25 05:37:21;;;;;;;11.82;8.48;;;;;;;8.96;100.00;99807.56;10560765;28;20038;-70
2023/10/25 05:42:23;;;;;;;9.90;7.88;;;;;;;9.05;100.00;99803.56;10578152;28;20035;-71
2023/10/25 05:47:25;;;;;;;13.00;8.75;;;;;;;9.05;100.00;99799.00;10579617;28;20040;-69
2023/10/25 05:52:25;;;;;;;14.82;7.85;;;;;;;9.09;100.00;99796.69;10579129;28;20039;-72
2023/10/25 05:57:26;;;;;;;9.63;8.07;;;;;;;9.12;100.00;99795.44;10578255;28;20489;-70
2023/10/25 06:02:27;;;;;;;14.43;8.20;;;;;;;9.19;100.00;99774.63;10577133;28;20122;-70
2023/10/25 06:07:28;;;;;;;8.45;6.38;;;;;;;9.16;100.00;99766.97;10578656;28;20031;-71
2023/10/25 06:12:28;;;;;;;9.48;8.30;;;;;;;9.16;100.00;99764.28;10580938;28;20042;-71
2023/10/25 06:17:29;;;;;;;15.45;8.15;;;;;;;9.22;100.00;99766.09;10587221;28;20111;-71
2023/10/25 06:22:29;;;;;;;11.98;7.95;;;;;;;9.20;100.00;99757.41;10586082;28;20063;-71
2023/10/25 06:27:29;;;;;;;11.18;9.15;;;;;;;9.20;100.00;99752.00;10584147;28;20036;-70
2023/10/25 06:32:30;;;;;;;9.43;7.93;;;;;;;9.21;100.00;99754.47;10585607;28;20038;-70
2023/10/25 06:37:31;;;;;;;18.35;8.68;;;;;;;9.21;100.00;99748.25;10584227;28;20442;-71
2023/10/25 06:42:32;;;;;;;9.32;8.27;;;;;;;9.18;100.00;99738.69;10585370;28;20118;-70
2023/10/25 06:47:33;;;;;;;13.43;7.78;;;;;;;9.23;100.00;99732.66;10583319;28;20056;-70
2023/10/25 06:52:33;;;;;;;12.27;7.15;;;;;;;9.27;100.00;99731.97;10584702;28;20043;-71
2023/10/25 06:57:35;;;;;;;16.13;5.93;;;;;;;9.30;100.00;99720.75;10583722;28;20038;-71
2023/10/25 07:02:56;;;;;;;9.60;6.15;;;;;;;9.37;100.00;99718.00;10584792;28;20032;-71
2023/10/25 07:07:57;;;;;;;12.95;7.18;;;;;;;9.42;100.00;99703.84;10584241;28;20169;-71
2023/10/25 07:12:59;;;;;;;13.60;6.03;;;;;;;9.46;100.00;99705.06;10584508;28;20157;-70
2023/10/25 07:17:59;;;;;;;11.23;6.63;;;;;;;9.48;100.00;99713.78;10584961;28;20494;-73
2023/10/25 07:23:00;;;;;;;10.82;7.47;;;;;;;9.49;100.00;99718.94;10582181;28;20061;-71
2023/10/25 07:28:00;;;;;;;13.38;7.75;;;;;;;9.50;100.00;99717.06;10584436;28;20039;-71
2023/10/25 07:33:01;;;;;;;8.43;7.20;;;;;;;9.46;100.00;99716.69;10583315;28;20270;-71
2023/10/25 07:38:01;;;;;;;14.55;8.30;;;;;;;9.50;100.00;99708.97;10582655;28;20031;-70
2023/10/25 07:43:02;;;;;;;12.35;7.68;;;;;;;9.58;100.00;99702.47;10584661;28;20036;-72
2023/10/25 07:48:03;;;;;;;11.13;5.97;;;;;;;9.67;100.00;99690.34;10582012;28;20453;-71
2023/10/25 07:53:03;;;;;;;12.85;7.03;;;;;;;9.71;100.00;99686.16;10582829;28;20035;-71
2023/10/25 07:58:04;;;;;;;9.73;7.07;;;;;;;9.70;100.00;99679.06;10583226;28;20039;-71
2023/10/25 08:03:04;;;;;;;9.80;6.30;;;;;;;9.75;100.00;99671.13;10583131;28;20436;-72
2023/10/25 08:08:05;;;;;;;10.73;7.63;;;;;;;9.76;100.00;99673.63;10581052;28;20112;-71
2023/10/25 08:13:05;;;;;;;7.50;6.13;;;;;;;9.76;100.00;99675.47;10580532;28;20421;-72
2023/10/25 08:18:05;;;;;;;9.75;6.25;;;;;;;9.78;100.00;99668.81;10580277;28;20069;-71
2023/10/25 08:23:06;;;;;;;7.35;6.75;;;;;;;9.86;100.00;99666.84;10580118;28;20089;-72
2023/10/25 08:28:06;;;;;;;8.25;6.65;;;;;;;9.92;100.00;99669.53;10581993;28;20039;-71
2023/10/25 08:33:07;;;;;;;6.05;5.55;;;;;;;9.91;100.00;99672.44;10581361;28;20028;-70
2023/10/25 08:38:07;;;;;;;15.00;7.05;;;;;;;9.96;100.00;99667.19;10580115;28;20393;-71
2023/10/25 08:43:08;;;;;;;10.57;6.65;;;;;;;9.98;100.00;99665.06;10580845;28;20035;-71
2023/10/25 08:48:08;;;;;;;7.15;5.85;;;;;;;9.99;100.00;99662.16;10578422;28;20482;-70
2023/10/25 08:53:08;;;;;;;7.03;6.18;;;;;;;9.93;100.00;99663.06;10580607;28;20032;-70
2023/10/25 08:58:09;;;;;;;0.70;0.70;;;;;;;9.94;100.00;99651.16;10578745;28;20116;-69
2023/10/25 09:03:30;;;;;;;0.43;0.43;;;;;;;9.94;100.00;99647.66;10580783;28;20085;-71
2023/10/25 09:08:31;;;;;;;0.82;0.82;;;;;;;9.91;100.00;99638.09;10578916;28;20051;-70
2023/10/25 09:13:41;;;;;;;0.80;0.80;;;;;;;10.02;100.00;99636.53;10560266;28;20142;-67
2023/10/25 09:18:41;;;;;;;22.48;3.50;;;;;;;10.06;100.00;99623.41;10579039;28;20062;-68
2023/10/25 09:23:42;;;;;;;0.63;0.63;;;;;;;10.08;100.00;99621.28;10578827;28;20390;-69
2023/10/25 09:28:42;;;;;;;3.53;2.15;;;;;;;10.05;100.00;99611.75;10560602;28;20050;-68
2023/10/25 09:33:43;;;;;;;0.50;0.50;;;;;;;10.09;100.00;99604.00;10577644;28;20031;-71
2023/10/25 09:38:43;;;;;;;0.45;0.45;;;;;;;10.06;100.00;99599.88;10579449;28;20114;-69
2023/10/25 09:43:50;;;;;;;0.40;0.40;;;;;;;10.07;100.00;99588.00;10582933;28;20035;-68
2023/10/25 09:49:04;;;;;;;0.47;0.47;;;;;;;10.12;100.00;99571.94;10606847;27;20048;-68
2023/10/25 09:54:11;;;;;;;1.38;1.38;;;;;;;10.08;100.00;99572.59;10590326;28;20473;-68
2023/10/25 09:59:12;;;;;;;1.52;1.48;;;;;;;10.00;100.00;99565.63;10590820;28;20037;-67
2023/10/25 10:04:39;;;;;;;0.50;0.50;;;;;;;10.00;100.00;99560.22;10591353;28;20122;-67
2023/10/25 10:09:52;;;;;;;1.55;1.27;;;;;;;10.08;100.00;99542.84;10591150;28;20382;-67
2023/10/25 10:14:53;;;;;;;0.60;0.60;;;;;;;10.17;100.00;99536.88;10592493;27;20420;-69
2023/10/25 10:19:54;;;;;;;2.08;1.98;;;;;;;10.25;100.00;99530.34;10592609;27;20035;-68
2023/10/25 10:25:03;;;;;;;1.30;1.20;;;;;;;10.30;100.00;99530.50;10591723;27;20035;-68
2023/10/25 10:30:04;;;;;;;2.70;2.60;;;;;;;10.45;100.00;99524.69;10592051;27;20345;-68
2023/10/25 10:35:05;;;;;;;7.47;3.05;;;;;;;10.48;100.00;99526.94;10592224;27;20047;-69
2023/10/25 10:40:06;;;;;;;0.60;0.60;;;;;;;10.55;100.00;99513.28;10592436;27;20031;-70
2023/10/25 10:45:09;;;;;;;0.88;0.88;;;;;;;10.51;100.00;99515.63;10591308;27;20119;-68
2023/10/25 10:50:14;;;;;;;0.35;0.35;;;;;;;10.37;100.00;99523.13;10608767;27;20107;-69
2023/10/25 10:55:19;;;;;;;2.40;1.40;;;;;;;10.35;100.00;99506.28;10590888;28;20114;-70
2023/10/25 11:00:19;;;;;;;1.13;1.13;;;;;;;10.24;100.00;99501.63;10568948;28;20057;-69
2023/10/25 11:05:21;;;;;;;0.35;0.35;;;;;;;10.22;100.00;99492.94;10588156;27;20111;-70
2023/10/25 11:10:22;;;;;;;0.52;0.52;;;;;;;10.15;100.00;99484.91;10591314;27;20032;-70
2023/10/25 11:15:25;;;;;;;0.60;0.60;;;;;;;10.10;100.00;99475.81;10586777;28;20106;-69
2023/10/25 11:20:25;;;;;;;0.52;0.52;;;;;;;10.13;100.00;99469.97;10583973;28;20038;-70
2023/10/25 11:25:27;;;;;;;0.70;0.70;;;;;;;10.14;100.00;99472.41;10582622;28;20031;-69
2023/10/25 11:30:28;;;;;;;0.45;0.45;;;;;;;10.21;100.00;99462.34;10583792;28;20039;-69
2023/10/25 11:35:28;;;;;;;8.57;5.65;;;;;;;10.42;100.00;99447.47;10564258;28;20024;-71
2023/10/25 11:40:47;;;;;;;0.50;0.50;;;;;;;10.73;100.00;99432.00;10598850;27;20044;-69
2023/10/25 11:45:47;;;;;;;1.45;1.45;;;;;;;10.81;100.00;99428.09;10581147;28;20403;-70
2023/10/25 11:50:48;;;;;;;1.67;1.67;;;;;;;10.98;100.00;99423.66;10582832;27;20032;-71
2023/10/25 11:55:48;;;;;;;0.75;0.75;;;;;;;10.98;100.00;99417.41;10581130;28;20035;-71
2023/10/25 12:00:48;;;;;;;0.70;0.70;;;;;;;10.98;100.00;99415.53;10581900;28;20182;-70
2023/10/25 12:05:49;;;;;;;0.52;0.52;;;;;;;10.91;100.00;99409.38;10584068;28;20093;-68
2023/10/25 12:10:49;;;;;;;3.10;1.45;;;;;;;10.88;100.00;99397.16;10585576;28;20024;-71
2023/10/25 12:15:50;;;;;;;1.40;1.30;;;;;;;10.86;100.00;99384.91;10582923;28;20032;-70
2023/10/25 12:20:50;;;;;;;0.70;0.70;;;;;;;10.85;100.00;99383.28;10581765;28;20419;-69
2023/10/25 12:25:50;;;;;;;0.63;0.63;;;;;;;10.79;100.00;99376.91;10579374;28;20046;-70
2023/10/25 12:30:51;;;;;;;1.00;1.00;;;;;;;10.68;100.00;99381.25;10597789;27;20039;-71
2023/10/25 12:35:53;;;;;;;0.45;0.45;;;;;;;10.78;100.00;99379.84;10580684;28;20043;-69
2023/10/25 12:40:53;;;;;;;0.82;0.82;;;;;;;10.86;100.00;99365.94;10578804;28;20036;-68
2023/10/25 12:45:53;;;;;;;0.82;0.82;;;;;;;10.89;100.00;99371.72;10580166;28;20427;-72
2023/10/25 12:50:54;;;;;;;0.50;0.50;;;;;;;11.02;100.00;99358.97;10561567;28;20386;-71
2023/10/25 12:55:54;;;;;;;0.50;0.50;;;;;;;11.03;100.00;99360.63;10581045;28;20102;-70
2023/10/25 13:00:56;;;;;;;0.95;0.95;;;;;;;11.06;100.00;99350.13;10579801;28;20108;-70
2023/10/25 13:05:57;;;;;;;1.75;1.10;;;;;;;11.02;100.00;99351.69;10580731;28;20520;-69
2023/10/25 13:10:59;;;;;;;0.47;0.47;;;;;;;10.95;100.00;99353.69;10578985;28;20104;-69
2023/10/25 13:15:59;;;;;;;0.40;0.40;;;;;;;10.81;100.00;99346.88;10578923;28;20119;-70
2023/10/25 13:20:59;;;;;;;0.73;0.73;;;;;;;10.85;100.00;99354.31;10577228;28;20058;-69
2023/10/25 13:26:00;;;;;;;0.52;0.52;;;;;;;10.93;100.00;99345.78;10578379;28;20051;-69
2023/10/25 13:31:00;;;;;;;0.60;0.60;;;;;;;11.03;100.00;99341.66;10578148;28;20383;-70
2023/10/25 13:36:01;;;;;;;0.50;0.50;;;;;;;10.91;100.00;99341.66;10578180;28;20090;-70
2023/10/25 13:41:01;;;;;;;0.50;0.50;;;;;;;10.88;100.00;99352.97;10579036;28;20042;-71
2023/10/25 13:46:01;;;;;;;0.40;0.40;;;;;;;10.96;100.00;99346.41;10579050;28;20524;-69
2023/10/25 13:51:02;;;;;;;0.70;0.70;;;;;;;10.98;100.00;99347.00;10578265;28;20042;-69
2023/10/25 13:56:03;;;;;;;1.67;1.58;;;;;;;10.96;100.00;99340.97;10578725;28;20463;-69
2023/10/25 14:01:03;;;;;;;0.57;0.57;;;;;;;11.00;100.00;99348.38;10576412;28;20032;-70
2023/10/25 14:06:04;;;;;;;0.80;0.80;;;;;;;10.97;100.00;99346.13;10578059;28;20036;-68
2023/10/25 14:11:06;;;;;;;0.50;0.50;;;;;;;11.02;100.00;99348.16;10578058;28;20031;-74
2023/10/25 14:16:07;;;;;;;0.50;0.50;;;;;;;11.10;100.00;99345.06;10576114;28;20176;-69
2023/10/25 14:21:11;;;;;;;1.27;1.27;;;;;;;11.03;100.00;99333.53;10559967;28;20114;-70
2023/10/25 14:26:11;;;;;;;0.45;0.45;;;;;;;10.96;100.00;99333.66;10577954;28;20031;-67
2023/10/25 14:31:15;;;;;;;0.60;0.60;;;;;;;10.88;100.00;99334.88;10578433;28;20443;-69
2023/10/25 14:36:16;;;;;;;1.27;1.23;;;;;;;10.82;100.00;99337.72;10571067;28;20036;-68
2023/10/25 14:41:16;;;;;;;1.70;1.60;;;;;;;10.78;100.00;99336.50;10585560;27;20031;-69
2023/10/25 14:46:19;;;;;;;0.60;0.60;;;;;;;10.78;100.00;99342.75;10584601;28;20052;-68
2023/10/25 14:51:25;;;;;;;0.50;0.50;;;;;;;10.69;100.00;99339.59;10584453;28;20109;-69
2023/10/25 14:56:25;;;;;;;2.10;2.00;;;;;;;10.63;100.00;99340.53;10585256;28;20028;-70
2023/10/25 15:01:26;;;;;;;0.40;0.40;;;;;;;10.63;100.00;99339.72;10584361;28;20592;-69
2023/10/25 15:06:28;;;;;;;1.33;1.23;;;;;;;10.65;100.00;99332.16;10583917;28;20039;-70
2023/10/25 15:11:28;;;;;;;0.40;0.40;;;;;;;10.57;100.00;99338.78;10584729;28;20039;-70
2023/10/25 15:16:29;;;;;;;0.77;0.77;;;;;;;10.61;100.00;99344.53;10582294;28;20403;-71
2023/10/25 15:21:29;;;;;;;0.57;0.57;;;;;;;10.62;100.00;99329.94;10599293;27;20080;-71
2023/10/25 15:26:30;;;;;;;0.50;0.50;;;;;;;10.65;100.00;99333.00;10582294;28;20051;-70
2023/10/25 15:31:30;;;;;;;0.40;0.40;;;;;;;10.69;100.00;99333.38;10582398;28;20043;-72
2023/10/25 15:36:30;;;;;;;0.68;0.68;;;;;;;10.68;100.00;99339.81;10581202;28;20040;-72
2023/10/25 15:41:31;;;;;;;0.65;0.65;;;;;;;10.65;100.00;99332.16;10582821;28;20112;-71
2023/10/25 15:46:31;;;;;;;0.40;0.40;;;;;;;10.67;100.00;99336.28;10582374;28;20144;-71
2023/10/25 15:51:36;;;;;;;0.40;0.40;;;;;;;10.69;100.00;99341.50;10581336;28;20036;-70
2023/10/25 15:56:36;;;;;;;0.40;0.40;;;;;;;10.62;100.00;99332.63;10582624;28;20082;-69
2023/10/25 16:01:36;;;;;;;0.80;0.80;;;;;;;10.52;100.00;99349.47;10582328;28;20028;-71
2023/10/25 16:06:37;;;;;;;4.75;1.65;;;;;;;10.48;100.00;99346.41;10580504;28;20518;-69
2023/10/25 16:11:37;;;;;;;2.50;1.85;;;;;;;10.51;100.00;99341.59;10580697;28;20313;-69
2023/10/25 16:16:38;;;;;;;0.40;0.40;;;;;;;10.49;100.00;99349.94;10581468;28;20036;-69
2023/10/25 16:21:38;;;;;;;0.70;0.70;;;;;;;10.45;100.00;99337.94;10596998;27;20055;-68
2023/10/25 16:26:38;;;;;;;0.57;0.57;;;;;;;10.44;100.00;99342.53;10579651;28;20053;-69
2023/10/25 16:31:39;;;;;;;1.05;1.05;;;;;;;10.40;100.00;99335.97;10581463;28;20465;-68
2023/10/25 16:36:39;;;;;;;0.50;0.50;;;;;;;10.40;100.00;99352.19;10596642;27;20059;-70
2023/10/25 16:41:40;;;;;;;0.60;0.60;;;;;;;10.37;100.00;99366.19;10580598;28;20032;-71
2023/10/25 16:46:40;;;;;;;0.50;0.50;;;;;;;10.42;100.00;99377.13;10580830;28;20055;-69
2023/10/25 16:51:42;;;;;;;0.40;0.40;;;;;;;10.39;100.00;99374.06;10580702;28;20062;-70
2023/10/25 16:56:43;;;;;;;0.40;0.40;;;;;;;10.42;100.00;99392.53;10584556;28;20092;-71
2023/10/25 17:01:44;;;;;;;0.47;0.47;;;;;;;10.43;100.00;99399.59;10585038;28;20035;-71
2023/10/25 17:06:44;;;;;;;0.50;0.50;;;;;;;10.47;100.00;99417.03;10581055;27;20028;-71
2023/10/25 17:11:45;;;;;;;0.40;0.40;;;;;;;10.49;100.00;99414.91;10595777;27;20120;-70
2023/10/25 17:16:45;;;;;;;1.42;1.42;;;;;;;10.47;100.00;99417.84;10580178;28;20035;-71
2023/10/25 17:21:46;;;;;;;0.40;0.40;;;;;;;10.43;100.00;99434.78;10579630;28;20028;-70
2023/10/25 17:26:46;;;;;;;0.40;0.40;;;;;;;10.42;100.00;99442.06;10578275;28;20039;-71
2023/10/25 17:31:47;;;;;;;0.40;0.40;;;;;;;10.41;100.00;99445.84;10579940;28;20470;-72
2023/10/25 17:36:47;;;;;;;0.50;0.50;;;;;;;10.30;100.00;99437.69;10561433;28;20024;-72
2023/10/25 17:41:47;;;;;;;0.63;0.63;;;;;;;10.34;100.00;99444.28;10581485;28;20027;-73
2023/10/25 17:46:48;;;;;;;0.75;0.75;;;;;;;10.37;100.00;99450.06;10585701;28;20126;-71
2023/10/25 17:51:50;;;;;;;0.50;0.50;;;;;;;10.40;100.00;99444.19;10579854;28;20032;-72
2023/10/25 17:56:50;;;;;;;0.73;0.73;;;;;;;10.40;100.00;99459.59;10578514;28;20042;-71
2023/10/25 18:01:50;;;;;;;0.63;0.63;;;;;;;10.41;100.00;99462.06;10560679;28;20419;-72
2023/10/25 18:06:52;;;;;;;0.55;0.55;;;;;;;10.34;100.00;99455.94;10579513;28;20043;-70
2023/10/25 18:11:53;;;;;;;1.30;1.30;;;;;;;10.32;100.00;99466.16;10588394;28;20048;-71
2023/10/25 18:16:54;;;;;;;0.50;0.50;;;;;;;10.34;100.00;99461.34;10586435;28;20035;-71
2023/10/25 18:22:00;;;;;;;1.80;1.70;;;;;;;10.37;100.00;99466.31;10585909;28;20031;-71
2023/10/25 18:27:01;;;;;;;0.60;0.60;;;;;;;10.32;100.00;99460.75;10587290;28;20036;-72
2023/10/25 18:32:01;;;;;;;0.40;0.40;;;;;;;10.30;100.00;99453.91;10584577;28;20374;-72
2023/10/25 18:37:02;;;;;;;0.40;0.40;;;;;;;10.24;100.00;99461.88;10585783;28;20046;-71
2023/10/25 18:42:03;;;;;;;0.98;0.93;;;;;;;10.30;100.00;99478.28;10584798;27;20038;-72
2023/10/25 18:47:10;;;;;;;0.40;0.40;;;;;;;10.32;100.00;99476.16;10584534;28;20047;-70
2023/10/25 18:52:11;;;;;;;0.55;0.55;;;;;;;10.34;100.00;99485.72;10583870;28;20377;-71
2023/10/25 18:57:12;;;;;;;0.70;0.70;;;;;;;10.35;100.00;99492.75;10585216;28;20454;-71
2023/10/25 19:02:14;;;;;;;0.50;0.50;;;;;;;10.33;100.00;99511.09;10583223;28;20039;-71
2023/10/25 19:07:15;;;;;;;0.65;0.65;;;;;;;10.38;100.00;99502.31;10584690;28;20098;-72
2023/10/25 19:12:18;;;;;;;1.85;1.75;;;;;;;10.40;100.00;99509.16;10583262;28;20060;-73
2023/10/25 19:17:18;;;;;;;2.35;2.25;;;;;;;10.36;100.00;99517.94;10584050;28;20035;-72
2023/10/25 19:22:18;;;;;;;0.35;0.35;;;;;;;10.36;100.00;99526.88;10601178;27;20031;-71
2023/10/25 19:27:19;;;;;;;0.50;0.50;;;;;;;10.34;100.00;99523.59;10584861;28;20089;-73
2023/10/25 19:32:19;;;;;;;1.27;1.27;;;;;;;10.31;100.00;99536.75;10582569;28;20116;-69
2023/10/25 19:37:20;;;;;;;0.55;0.55;;;;;;;10.12;100.00;99527.81;10583020;27;20043;-70
2023/10/25 19:42:20;;;;;;;0.50;0.50;;;;;;;9.93;100.00;99529.72;10583246;28;20498;-73
2023/10/25 19:47:21;;;;;;;1.35;1.35;;;;;;;9.84;100.00;99531.91;10586566;28;20154;-72
2023/10/25 19:52:21;;;;;;;0.50;0.50;;;;;;;9.83;100.00;99530.25;10600946;27;20449;-73
2023/10/25 19:57:21;;;;;;;0.50;0.50;;;;;;;9.89;100.00;99542.03;10584278;28;20043;-69
2023/10/25 20:02:22;;;;;;;0.85;0.85;;;;;;;10.02;100.00;99545.41;10582865;28;20462;-71
2023/10/25 20:07:22;;;;;;;1.85;1.75;;;;;;;10.11;100.00;99564.03;10583807;28;20096;-71
2023/10/25 20:12:25;;;;;;;0.63;0.63;;;;;;;10.20;100.00;99568.88;10584233;28;20157;-70
2023/10/25 20:17:26;;;;;;;0.95;0.95;;;;;;;10.23;100.00;99556.78;10581131;28;20035;-72
2023/10/25 20:22:29;;;;;;;1.52;1.52;;;;;;;10.24;100.00;99564.69;10581529;28;20050;-73
2023/10/25 20:27:31;;;;;;;1.65;1.65;;;;;;;10.24;100.00;99569.25;10583355;28;20043;-71
2023/10/25 20:32:32;;;;;;;1.20;1.20;;;;;;;10.25;100.00;99571.75;10582948;28;20126;-72
2023/10/25 20:37:32;;;;;;;0.77;0.77;;;;;;;10.19;100.00;99566.44;10583534;28;20032;-71
2023/10/25 20:42:32;;;;;;;1.00;1.00;;;;;;;10.10;100.00;99579.44;10583226;27;20028;-73
2023/10/25 20:47:33;;;;;;;0.70;0.70;;;;;;;10.11;100.00;99589.19;10583073;28;20444;-70
2023/10/25 20:52:33;;;;;;;1.60;1.60;;;;;;;9.99;100.00;99585.63;10581507;28;20085;-72
2023/10/25 20:57:35;;;;;;;1.35;1.35;;;;;;;9.86;100.00;99601.97;10581815;27;20040;-70
2023/10/25 21:02:36;;;;;;;2.15;2.05;;;;;;;9.77;100.00;99614.97;10580393;28;20376;-72
2023/10/25 21:07:37;;;;;;;1.00;1.00;;;;;;;9.71;100.00;99613.16;10581821;28;20100;-71
2023/10/25 21:12:37;;;;;;;0.52;0.52;;;;;;;9.64;100.00;99615.09;10581074;28;20073;-70
2023/10/25 21:17:38;;;;;;;0.60;0.60;;;;;;;9.61;100.00;99629.06;10580938;28;20096;-72
2023/10/25 21:22:38;;;;;;;2.15;1.23;;;;;;;9.52;100.00;99626.63;10580542;28;20118;-71
2023/10/25 21:27:39;;;;;;;0.93;0.93;;;;;;;9.46;100.00;99626.69;10580411;28;20036;-71
2023/10/25 21:32:39;;;;;;;0.88;0.88;;;;;;;9.58;100.00;99637.63;10579338;28;20432;-71
2023/10/25 21:37:41;;;;;;;0.80;0.80;;;;;;;9.68;100.00;99646.84;10579415;28;20035;-71
2023/10/25 21:42:41;;;;;;;0.80;0.80;;;;;;;9.69;100.00;99653.91;10577065;28;20104;-72
2023/10/25 21:47:42;;;;;;;0.40;0.40;;;;;;;9.63;100.00;99662.09;10579774;28;20056;-73
2023/10/25 21:52:44;;;;;;;0.82;0.82;;;;;;;9.66;100.00;99656.22;10579675;28;20051;-72
2023/10/25 21:57:44;;;;;;;1.52;1.42;;;;;;;9.76;100.00;99651.13;10579436;28;20110;-70
2023/10/25 22:02:45;;;;;;;0.70;0.70;;;;;;;9.79;100.00;99639.88;10577961;28;20348;-71
2023/10/25 22:07:45;;;;;;;3.63;1.45;;;;;;;9.84;100.00;99653.56;10577591;28;20358;-71
2023/10/25 22:12:46;;;;;;;0.50;0.50;;;;;;;9.84;100.00;99652.75;10593821;28;20073;-71
2023/10/25 22:17:47;;;;;;;1.75;1.73;;;;;;;9.82;100.00;99652.13;10577792;28;20062;-72
2023/10/25 22:22:47;;;;;;;0.40;0.40;;;;;;;9.75;100.00;99638.69;10576302;28;20042;-71
2023/10/25 22:27:47;;;;;;;3.55;2.40;;;;;;;9.68;100.00;99636.03;10578192;28;20063;-72
2023/10/25 22:32:48;;;;;;;0.65;0.65;;;;;;;9.45;100.00;99631.28;10578299;28;20046;-69
2023/10/25 22:37:48;;;;;;;0.60;0.60;;;;;;;9.11;100.00;99632.56;10578185;28;20032;-72
2023/10/25 22:42:49;;;;;;;0.70;0.70;;;;;;;8.91;100.00;99630.03;10577207;28;20034;-72
2023/10/25 22:47:49;;;;;;;2.25;2.15;;;;;;;8.72;100.00;99636.38;10559212;28;20090;-72
2023/10/25 22:52:50;;;;;;;0.98;0.98;;;;;;;8.51;100.00;99642.91;10579398;28;20039;-71
2023/10/25 22:57:51;;;;;;;0.50;0.50;;;;;;;8.43;100.00;99649.38;10584980;28;20043;-71
2023/10/25 23:02:51;;;;;;;0.55;0.55;;;;;;;8.31;100.00;99654.56;10584276;28;20081;-71
2023/10/25 23:07:51;;;;;;;0.90;0.90;;;;;;;8.14;100.00;99667.72;10566588;28;20459;-72